sensor_id;sensor_type;location;lat;lon;timestamp;P1;durP1;ratioP1;P2;durP2;ratioP2
42760;SDS011;31672;47.638;19.026;2023-10-19T00:00:55;7.93;;;4.60;;
42760;SDS011;31672;47.638;19.026;2023-10-19T00:05:59;9.60;;;4.47;;
42760;SDS011;31672;47.638;19.026;2023-10-19T00:11:02;8.90;;;4.63;;
42760;SDS011;31672;47.638;19.026;2023-10-19T00:16:25;11.30;;;5.63;;
42760;SDS011;31672;47.638;19.026;2023-10-19T00:21:38;11.40;;;5.93;;
42760;SDS011;31672;47.638;19.026;2023-10-19T00:26:57;10.80;;;4.70;;
42760;SDS011;31672;47.638;19.026;2023-10-19T00:32:08;9.40;;;5.85;;
42760;SDS011;31672;47.638;19.026;2023-10-19T00:37:15;10.53;;;4.93;;
42760;SDS011;31672;47.638;19.026;2023-10-19T00:42:22;9.30;;;4.93;;
42760;SDS011;31672;47.638;19.026;2023-10-19T00:47:29;9.13;;;5.20;;
42760;SDS011;31672;47.638;19.026;2023-10-19T00:52:43;10.03;;;4.67;;
42760;SDS011;31672;47.638;19.026;2023-10-19T00:57:53;7.33;;;4.23;;
42760;SDS011;31672;47.638;19.026;2023-10-19T01:02:57;7.97;;;4.90;;
42760;SDS011;31672;47.638;19.026;2023-10-19T01:08:09;8.77;;;4.33;;
42760;SDS011;31672;47.638;19.026;2023-10-19T01:13:34;10.73;;;4.80;;
42760;SDS011;31672;47.638;19.026;2023-10-19T01:18:38;8.67;;;4.63;;
42760;SDS011;31672;47.638;19.026;2023-10-19T01:23:45;10.63;;;5.17;;
42760;SDS011;31672;47.638;19.026;2023-10-19T01:28:51;8.40;;;4.80;;
42760;SDS011;31672;47.638;19.026;2023-10-19T01:34:04;9.63;;;4.83;;
42760;SDS011;31672;47.638;19.026;2023-10-19T01:39:09;7.53;;;4.40;;
42760;SDS011;31672;47.638;19.026;2023-10-19T01:44:14;9.07;;;5.00;;
42760;SDS011;31672;47.638;19.026;2023-10-19T01:49:18;8.90;;;4.93;;
42760;SDS011;31672;47.638;19.026;2023-10-19T01:54:32;12.47;;;5.77;;
42760;SDS011;31672;47.638;19.026;2023-10-19T01:59:37;12.83;;;5.70;;
42760;SDS011;31672;47.638;19.026;2023-10-19T02:04:41;11.77;;;6.13;;
42760;SDS011;31672;47.638;19.026;2023-10-19T02:09:45;12.33;;;6.53;;
42760;SDS011;31672;47.638;19.026;2023-10-19T02:14:49;9.67;;;5.50;;
42760;SDS011;31672;47.638;19.026;2023-10-19T02:19:53;13.03;;;6.00;;
42760;SDS011;31672;47.638;19.026;2023-10-19T02:24:57;10.53;;;5.27;;
42760;SDS011;31672;47.638;19.026;2023-10-19T02:30:00;10.63;;;5.33;;
42760;SDS011;31672;47.638;19.026;2023-10-19T02:35:05;12.00;;;6.17;;
42760;SDS011;31672;47.638;19.026;2023-10-19T02:40:10;10.93;;;6.00;;
42760;SDS011;31672;47.638;19.026;2023-10-19T02:45:18;12.90;;;6.17;;
42760;SDS011;31672;47.638;19.026;2023-10-19T02:50:22;11.30;;;6.10;;
42760;SDS011;31672;47.638;19.026;2023-10-19T02:55:29;12.23;;;6.47;;
42760;SDS011;31672;47.638;19.026;2023-10-19T03:00:36;16.57;;;8.37;;
42760;SDS011;31672;47.638;19.026;2023-10-19T03:05:42;14.50;;;7.50;;
42760;SDS011;31672;47.638;19.026;2023-10-19T03:10:46;14.73;;;7.67;;
42760;SDS011;31672;47.638;19.026;2023-10-19T03:15:49;17.07;;;8.70;;
42760;SDS011;31672;47.638;19.026;2023-10-19T03:20:56;16.40;;;8.30;;
42760;SDS011;31672;47.638;19.026;2023-10-19T03:26:00;17.20;;;8.37;;
42760;SDS011;31672;47.638;19.026;2023-10-19T03:31:22;16.35;;;9.45;;
42760;SDS011;31672;47.638;19.026;2023-10-19T03:36:30;18.10;;;9.27;;
42760;SDS011;31672;47.638;19.026;2023-10-19T03:41:35;19.07;;;9.73;;
42760;SDS011;31672;47.638;19.026;2023-10-19T03:46:39;16.13;;;8.97;;
42760;SDS011;31672;47.638;19.026;2023-10-19T03:51:56;19.90;;;9.10;;
42760;SDS011;31672;47.638;19.026;2023-10-19T03:57:12;18.57;;;9.77;;
42760;SDS011;31672;47.638;19.026;2023-10-19T04:02:22;17.75;;;9.73;;
42760;SDS011;31672;47.638;19.026;2023-10-19T04:07:32;21.00;;;11.33;;
42760;SDS011;31672;47.638;19.026;2023-10-19T04:12:39;20.33;;;9.73;;
42760;SDS011;31672;47.638;19.026;2023-10-19T04:17:47;20.20;;;9.47;;
42760;SDS011;31672;47.638;19.026;2023-10-19T04:22:52;20.00;;;9.90;;
42760;SDS011;31672;47.638;19.026;2023-10-19T04:28:01;16.10;;;9.40;;
42760;SDS011;31672;47.638;19.026;2023-10-19T04:33:06;17.70;;;9.57;;
42760;SDS011;31672;47.638;19.026;2023-10-19T04:38:12;19.37;;;9.77;;
42760;SDS011;31672;47.638;19.026;2023-10-19T04:43:16;20.13;;;10.87;;
42760;SDS011;31672;47.638;19.026;2023-10-19T04:48:20;18.40;;;9.80;;
42760;SDS011;31672;47.638;19.026;2023-10-19T04:53:24;19.33;;;10.73;;
42760;SDS011;31672;47.638;19.026;2023-10-19T04:58:27;20.73;;;10.43;;
42760;SDS011;31672;47.638;19.026;2023-10-19T05:03:32;20.40;;;10.97;;
42760;SDS011;31672;47.638;19.026;2023-10-19T05:08:37;14.90;;;8.87;;
42760;SDS011;31672;47.638;19.026;2023-10-19T05:13:42;19.43;;;10.47;;
42760;SDS011;31672;47.638;19.026;2023-10-19T05:18:46;16.50;;;9.33;;
42760;SDS011;31672;47.638;19.026;2023-10-19T05:23:49;16.60;;;9.20;;
42760;SDS011;31672;47.638;19.026;2023-10-19T05:28:54;17.97;;;9.23;;
42760;SDS011;31672;47.638;19.026;2023-10-19T05:33:57;17.67;;;9.80;;
42760;SDS011;31672;47.638;19.026;2023-10-19T05:39:01;15.20;;;8.70;;
42760;SDS011;31672;47.638;19.026;2023-10-19T05:44:07;19.23;;;9.40;;
42760;SDS011;31672;47.638;19.026;2023-10-19T05:49:12;23.37;;;10.40;;
42760;SDS011;31672;47.638;19.026;2023-10-19T05:54:16;16.47;;;9.50;;
42760;SDS011;31672;47.638;19.026;2023-10-19T05:59:20;19.97;;;10.40;;
42760;SDS011;31672;47.638;19.026;2023-10-19T06:04:24;22.77;;;9.83;;
42760;SDS011;31672;47.638;19.026;2023-10-19T06:09:28;19.73;;;9.43;;
42760;SDS011;31672;47.638;19.026;2023-10-19T06:14:34;19.63;;;8.73;;
42760;SDS011;31672;47.638;19.026;2023-10-19T06:19:38;17.63;;;10.17;;
42760;SDS011;31672;47.638;19.026;2023-10-19T06:24:42;17.83;;;9.60;;
42760;SDS011;31672;47.638;19.026;2023-10-19T06:29:46;16.50;;;9.10;;
42760;SDS011;31672;47.638;19.026;2023-10-19T06:34:51;16.70;;;8.70;;
42760;SDS011;31672;47.638;19.026;2023-10-19T06:39:55;23.87;;;10.40;;
42760;SDS011;31672;47.638;19.026;2023-10-19T06:44:59;16.67;;;8.73;;
42760;SDS011;31672;47.638;19.026;2023-10-19T06:50:06;17.67;;;9.80;;
42760;SDS011;31672;47.638;19.026;2023-10-19T06:55:12;16.93;;;9.00;;
42760;SDS011;31672;47.638;19.026;2023-10-19T07:00:21;19.70;;;9.47;;
42760;SDS011;31672;47.638;19.026;2023-10-19T07:05:29;17.70;;;9.47;;
42760;SDS011;31672;47.638;19.026;2023-10-19T07:10:33;18.07;;;9.80;;
42760;SDS011;31672;47.638;19.026;2023-10-19T07:15:37;17.73;;;9.17;;
42760;SDS011;31672;47.638;19.026;2023-10-19T07:20:44;16.77;;;8.97;;
42760;SDS011;31672;47.638;19.026;2023-10-19T07:25:52;18.20;;;8.87;;
42760;SDS011;31672;47.638;19.026;2023-10-19T07:31:03;18.53;;;9.63;;
42760;SDS011;31672;47.638;19.026;2023-10-19T07:36:11;16.77;;;9.13;;
42760;SDS011;31672;47.638;19.026;2023-10-19T07:41:17;15.80;;;9.20;;
42760;SDS011;31672;47.638;19.026;2023-10-19T07:46:21;17.33;;;9.60;;
42760;SDS011;31672;47.638;19.026;2023-10-19T07:51:25;16.73;;;8.50;;
42760;SDS011;31672;47.638;19.026;2023-10-19T07:56:29;14.43;;;8.53;;
42760;SDS011;31672;47.638;19.026;2023-10-19T08:01:32;18.30;;;8.90;;
42760;SDS011;31672;47.638;19.026;2023-10-19T08:06:36;14.33;;;7.80;;
42760;SDS011;31672;47.638;19.026;2023-10-19T08:11:40;15.60;;;8.90;;
42760;SDS011;31672;47.638;19.026;2023-10-19T08:16:45;17.83;;;9.77;;
42760;SDS011;31672;47.638;19.026;2023-10-19T08:21:49;20.13;;;10.53;;
42760;SDS011;31672;47.638;19.026;2023-10-19T08:26:53;15.43;;;9.00;;
42760;SDS011;31672;47.638;19.026;2023-10-19T08:31:57;18.07;;;8.80;;
42760;SDS011;31672;47.638;19.026;2023-10-19T08:37:01;16.73;;;9.27;;
42760;SDS011;31672;47.638;19.026;2023-10-19T08:42:07;18.57;;;9.50;;
42760;SDS011;31672;47.638;19.026;2023-10-19T08:47:11;15.10;;;8.73;;
42760;SDS011;31672;47.638;19.026;2023-10-19T08:52:15;19.50;;;8.90;;
42760;SDS011;31672;47.638;19.026;2023-10-19T08:57:20;18.47;;;9.47;;
42760;SDS011;31672;47.638;19.026;2023-10-19T09:02:24;17.97;;;9.60;;
42760;SDS011;31672;47.638;19.026;2023-10-19T09:07:30;19.20;;;9.60;;
42760;SDS011;31672;47.638;19.026;2023-10-19T09:12:33;18.00;;;9.63;;
42760;SDS011;31672;47.638;19.026;2023-10-19T09:17:37;17.93;;;8.53;;
42760;SDS011;31672;47.638;19.026;2023-10-19T09:22:43;19.97;;;10.10;;
42760;SDS011;31672;47.638;19.026;2023-10-19T09:27:47;21.23;;;9.80;;
42760;SDS011;31672;47.638;19.026;2023-10-19T09:32:51;16.47;;;9.57;;
42760;SDS011;31672;47.638;19.026;2023-10-19T09:37:58;19.60;;;10.23;;
42760;SDS011;31672;47.638;19.026;2023-10-19T09:43:04;18.97;;;10.17;;
42760;SDS011;31672;47.638;19.026;2023-10-19T09:48:11;21.53;;;11.60;;
42760;SDS011;31672;47.638;19.026;2023-10-19T09:53:20;23.97;;;11.67;;
42760;SDS011;31672;47.638;19.026;2023-10-19T09:58:32;21.07;;;11.20;;
42760;SDS011;31672;47.638;19.026;2023-10-19T10:03:58;21.23;;;11.50;;
42760;SDS011;31672;47.638;19.026;2023-10-19T10:09:02;19.37;;;10.37;;
42760;SDS011;31672;47.638;19.026;2023-10-19T10:14:20;20.53;;;11.33;;
42760;SDS011;31672;47.638;19.026;2023-10-19T10:19:31;22.70;;;11.93;;
42760;SDS011;31672;47.638;19.026;2023-10-19T10:24:35;20.70;;;11.37;;
42760;SDS011;31672;47.638;19.026;2023-10-19T10:29:54;21.73;;;11.47;;
42760;SDS011;31672;47.638;19.026;2023-10-19T10:35:04;20.90;;;11.67;;
42760;SDS011;31672;47.638;19.026;2023-10-19T10:40:10;22.03;;;11.80;;
42760;SDS011;31672;47.638;19.026;2023-10-19T10:45:21;21.27;;;11.73;;
42760;SDS011;31672;47.638;19.026;2023-10-19T10:50:24;21.23;;;12.13;;
42760;SDS011;31672;47.638;19.026;2023-10-19T10:55:28;23.67;;;12.43;;
42760;SDS011;31672;47.638;19.026;2023-10-19T11:00:32;24.77;;;13.23;;
42760;SDS011;31672;47.638;19.026;2023-10-19T11:05:37;25.00;;;12.77;;
42760;SDS011;31672;47.638;19.026;2023-10-19T11:10:42;22.10;;;12.60;;
42760;SDS011;31672;47.638;19.026;2023-10-19T11:15:53;20.23;;;11.63;;
42760;SDS011;31672;47.638;19.026;2023-10-19T11:21:02;22.70;;;12.03;;
42760;SDS011;31672;47.638;19.026;2023-10-19T11:26:10;23.30;;;12.90;;
42760;SDS011;31672;47.638;19.026;2023-10-19T11:31:20;20.13;;;11.50;;
42760;SDS011;31672;47.638;19.026;2023-10-19T11:36:25;20.13;;;11.20;;
42760;SDS011;31672;47.638;19.026;2023-10-19T11:41:29;22.83;;;12.60;;
42760;SDS011;31672;47.638;19.026;2023-10-19T11:46:33;25.43;;;14.03;;
42760;SDS011;31672;47.638;19.026;2023-10-19T11:51:37;26.73;;;12.60;;
42760;SDS011;31672;47.638;19.026;2023-10-19T11:56:41;22.53;;;12.17;;
42760;SDS011;31672;47.638;19.026;2023-10-19T12:01:44;21.47;;;10.87;;
42760;SDS011;31672;47.638;19.026;2023-10-19T12:06:48;20.80;;;11.10;;
42760;SDS011;31672;47.638;19.026;2023-10-19T12:11:52;20.57;;;11.47;;
42760;SDS011;31672;47.638;19.026;2023-10-19T12:16:58;22.67;;;10.73;;
42760;SDS011;31672;47.638;19.026;2023-10-19T12:22:05;23.67;;;11.33;;
42760;SDS011;31672;47.638;19.026;2023-10-19T12:27:11;24.03;;;12.13;;
42760;SDS011;31672;47.638;19.026;2023-10-19T12:32:16;21.73;;;12.90;;
42760;SDS011;31672;47.638;19.026;2023-10-19T12:37:20;20.43;;;11.53;;
42760;SDS011;31672;47.638;19.026;2023-10-19T12:42:24;21.63;;;12.33;;
42760;SDS011;31672;47.638;19.026;2023-10-19T12:47:27;27.80;;;13.67;;
42760;SDS011;31672;47.638;19.026;2023-10-19T12:52:32;20.00;;;12.03;;
42760;SDS011;31672;47.638;19.026;2023-10-19T12:57:40;21.43;;;12.10;;
42760;SDS011;31672;47.638;19.026;2023-10-19T13:02:44;26.03;;;13.03;;
42760;SDS011;31672;47.638;19.026;2023-10-19T13:07:47;22.87;;;12.37;;
42760;SDS011;31672;47.638;19.026;2023-10-19T13:12:52;23.70;;;11.80;;
42760;SDS011;31672;47.638;19.026;2023-10-19T13:17:57;23.13;;;12.93;;
42760;SDS011;31672;47.638;19.026;2023-10-19T13:23:04;20.03;;;12.17;;
42760;SDS011;31672;47.638;19.026;2023-10-19T13:33:20;19.80;;;11.87;;
42760;SDS011;31672;47.638;19.026;2023-10-19T13:38:24;22.20;;;12.00;;
42760;SDS011;31672;47.638;19.026;2023-10-19T13:43:29;20.30;;;11.97;;
42760;SDS011;31672;47.638;19.026;2023-10-19T13:48:36;20.43;;;12.40;;
42760;SDS011;31672;47.638;19.026;2023-10-19T13:53:42;25.00;;;13.57;;
42760;SDS011;31672;47.638;19.026;2023-10-19T13:58:49;22.87;;;12.37;;
42760;SDS011;31672;47.638;19.026;2023-10-19T14:03:55;24.50;;;14.87;;
42760;SDS011;31672;47.638;19.026;2023-10-19T14:08:58;26.40;;;14.57;;
42760;SDS011;31672;47.638;19.026;2023-10-19T14:14:04;24.03;;;13.57;;
42760;SDS011;31672;47.638;19.026;2023-10-19T14:19:10;27.27;;;14.50;;
42760;SDS011;31672;47.638;19.026;2023-10-19T14:24:13;29.23;;;15.23;;
42760;SDS011;31672;47.638;19.026;2023-10-19T14:29:17;27.47;;;14.60;;
42760;SDS011;31672;47.638;19.026;2023-10-19T14:34:21;22.33;;;13.17;;
42760;SDS011;31672;47.638;19.026;2023-10-19T14:39:25;36.67;;;17.13;;
42760;SDS011;31672;47.638;19.026;2023-10-19T14:44:28;30.40;;;16.23;;
42760;SDS011;31672;47.638;19.026;2023-10-19T14:49:32;53.40;;;20.73;;
42760;SDS011;31672;47.638;19.026;2023-10-19T14:54:36;31.47;;;15.80;;
42760;SDS011;31672;47.638;19.026;2023-10-19T14:59:40;27.60;;;14.63;;
42760;SDS011;31672;47.638;19.026;2023-10-19T15:04:46;32.40;;;15.33;;
42760;SDS011;31672;47.638;19.026;2023-10-19T15:09:50;34.13;;;15.43;;
42760;SDS011;31672;47.638;19.026;2023-10-19T15:14:54;29.17;;;16.07;;
42760;SDS011;31672;47.638;19.026;2023-10-19T15:19:58;28.83;;;15.47;;
42760;SDS011;31672;47.638;19.026;2023-10-19T15:25:02;32.30;;;15.00;;
42760;SDS011;31672;47.638;19.026;2023-10-19T15:30:08;31.27;;;16.80;;
42760;SDS011;31672;47.638;19.026;2023-10-19T15:35:14;35.10;;;16.20;;
42760;SDS011;31672;47.638;19.026;2023-10-19T15:40:25;30.90;;;15.20;;
42760;SDS011;31672;47.638;19.026;2023-10-19T15:45:28;41.13;;;19.00;;
42760;SDS011;31672;47.638;19.026;2023-10-19T15:50:38;35.37;;;15.87;;
42760;SDS011;31672;47.638;19.026;2023-10-19T15:55:43;35.93;;;16.47;;
42760;SDS011;31672;47.638;19.026;2023-10-19T16:00:47;33.93;;;14.60;;
42760;SDS011;31672;47.638;19.026;2023-10-19T16:05:51;33.27;;;14.43;;
42760;SDS011;31672;47.638;19.026;2023-10-19T16:10:55;36.17;;;16.10;;
42760;SDS011;31672;47.638;19.026;2023-10-19T16:16:01;34.87;;;16.13;;
42760;SDS011;31672;47.638;19.026;2023-10-19T16:21:07;39.97;;;17.60;;
42760;SDS011;31672;47.638;19.026;2023-10-19T16:26:10;41.50;;;18.20;;
42760;SDS011;31672;47.638;19.026;2023-10-19T16:31:16;40.97;;;18.30;;
42760;SDS011;31672;47.638;19.026;2023-10-19T16:36:20;36.83;;;16.57;;
42760;SDS011;31672;47.638;19.026;2023-10-19T16:41:24;34.37;;;16.17;;
42760;SDS011;31672;47.638;19.026;2023-10-19T16:46:27;44.10;;;19.00;;
42760;SDS011;31672;47.638;19.026;2023-10-19T16:51:32;43.80;;;17.70;;
42760;SDS011;31672;47.638;19.026;2023-10-19T16:56:39;43.10;;;18.10;;
42760;SDS011;31672;47.638;19.026;2023-10-19T17:01:49;38.30;;;18.23;;
42760;SDS011;31672;47.638;19.026;2023-10-19T17:06:55;41.80;;;18.43;;
42760;SDS011;31672;47.638;19.026;2023-10-19T17:11:59;36.80;;;17.57;;
42760;SDS011;31672;47.638;19.026;2023-10-19T17:17:03;39.63;;;18.30;;
42760;SDS011;31672;47.638;19.026;2023-10-19T17:22:12;36.50;;;18.03;;
42760;SDS011;31672;47.638;19.026;2023-10-19T17:27:15;41.03;;;18.63;;
42760;SDS011;31672;47.638;19.026;2023-10-19T17:32:19;34.27;;;16.90;;
42760;SDS011;31672;47.638;19.026;2023-10-19T17:37:23;39.67;;;17.70;;
42760;SDS011;31672;47.638;19.026;2023-10-19T17:42:26;35.67;;;17.10;;
42760;SDS011;31672;47.638;19.026;2023-10-19T17:47:33;38.60;;;18.07;;
42760;SDS011;31672;47.638;19.026;2023-10-19T17:52:39;43.40;;;20.73;;
42760;SDS011;31672;47.638;19.026;2023-10-19T17:57:43;45.70;;;21.70;;
42760;SDS011;31672;47.638;19.026;2023-10-19T18:02:50;51.17;;;21.20;;
42760;SDS011;31672;47.638;19.026;2023-10-19T18:07:57;56.17;;;24.70;;
42760;SDS011;31672;47.638;19.026;2023-10-19T18:13:01;56.20;;;24.30;;
42760;SDS011;31672;47.638;19.026;2023-10-19T18:18:07;61.00;;;26.83;;
42760;SDS011;31672;47.638;19.026;2023-10-19T18:23:11;39.10;;;19.13;;
42760;SDS011;31672;47.638;19.026;2023-10-19T18:28:21;37.10;;;17.23;;
42760;SDS011;31672;47.638;19.026;2023-10-19T18:33:25;39.07;;;18.70;;
42760;SDS011;31672;47.638;19.026;2023-10-19T18:38:32;34.83;;;16.93;;
42760;SDS011;31672;47.638;19.026;2023-10-19T18:43:39;48.20;;;19.47;;
42760;SDS011;31672;47.638;19.026;2023-10-19T18:48:43;33.00;;;16.07;;
42760;SDS011;31672;47.638;19.026;2023-10-19T18:53:47;38.53;;;18.40;;
42760;SDS011;31672;47.638;19.026;2023-10-19T18:58:51;35.03;;;15.93;;
42760;SDS011;31672;47.638;19.026;2023-10-19T19:03:55;35.87;;;16.10;;
42760;SDS011;31672;47.638;19.026;2023-10-19T19:09:02;60.77;;;26.40;;
42760;SDS011;31672;47.638;19.026;2023-10-19T19:14:07;60.63;;;26.90;;
42760;SDS011;31672;47.638;19.026;2023-10-19T19:19:11;54.30;;;25.07;;
42760;SDS011;31672;47.638;19.026;2023-10-19T19:24:16;47.07;;;21.70;;
42760;SDS011;31672;47.638;19.026;2023-10-19T19:29:20;61.20;;;26.87;;
42760;SDS011;31672;47.638;19.026;2023-10-19T19:34:25;49.67;;;22.00;;
42760;SDS011;31672;47.638;19.026;2023-10-19T19:39:29;51.90;;;20.97;;
42760;SDS011;31672;47.638;19.026;2023-10-19T19:44:33;49.13;;;20.27;;
42760;SDS011;31672;47.638;19.026;2023-10-19T19:49:36;48.27;;;22.00;;
42760;SDS011;31672;47.638;19.026;2023-10-19T19:54:40;60.80;;;23.87;;
42760;SDS011;31672;47.638;19.026;2023-10-19T19:59:44;48.40;;;20.43;;
42760;SDS011;31672;47.638;19.026;2023-10-19T20:04:50;44.47;;;20.30;;
42760;SDS011;31672;47.638;19.026;2023-10-19T20:09:56;40.93;;;18.83;;
42760;SDS011;31672;47.638;19.026;2023-10-19T20:15:00;42.30;;;17.80;;
42760;SDS011;31672;47.638;19.026;2023-10-19T20:20:04;41.73;;;18.00;;
42760;SDS011;31672;47.638;19.026;2023-10-19T20:25:14;44.53;;;19.33;;
42760;SDS011;31672;47.638;19.026;2023-10-19T20:30:18;37.93;;;15.90;;
42760;SDS011;31672;47.638;19.026;2023-10-19T20:35:23;31.90;;;16.07;;
42760;SDS011;31672;47.638;19.026;2023-10-19T20:40:29;39.90;;;17.43;;
42760;SDS011;31672;47.638;19.026;2023-10-19T20:45:39;34.53;;;14.47;;
42760;SDS011;31672;47.638;19.026;2023-10-19T20:50:43;38.17;;;16.70;;
42760;SDS011;31672;47.638;19.026;2023-10-19T20:55:48;40.80;;;15.47;;
42760;SDS011;31672;47.638;19.026;2023-10-19T21:00:51;42.30;;;17.03;;
42760;SDS011;31672;47.638;19.026;2023-10-19T21:05:55;46.77;;;18.37;;
42760;SDS011;31672;47.638;19.026;2023-10-19T21:10:59;31.07;;;13.93;;
42760;SDS011;31672;47.638;19.026;2023-10-19T21:16:06;29.93;;;13.67;;
42760;SDS011;31672;47.638;19.026;2023-10-19T21:21:12;42.27;;;17.23;;
42760;SDS011;31672;47.638;19.026;2023-10-19T21:26:16;32.30;;;13.97;;
42760;SDS011;31672;47.638;19.026;2023-10-19T21:31:20;30.30;;;15.10;;
42760;SDS011;31672;47.638;19.026;2023-10-19T21:36:24;24.90;;;12.33;;
42760;SDS011;31672;47.638;19.026;2023-10-19T21:41:29;26.07;;;12.03;;
42760;SDS011;31672;47.638;19.026;2023-10-19T21:46:32;27.87;;;12.40;;
42760;SDS011;31672;47.638;19.026;2023-10-19T21:51:36;33.30;;;14.60;;
42760;SDS011;31672;47.638;19.026;2023-10-19T21:56:40;30.73;;;13.70;;
42760;SDS011;31672;47.638;19.026;2023-10-19T22:01:44;30.10;;;13.53;;
42760;SDS011;31672;47.638;19.026;2023-10-19T22:06:49;36.97;;;16.10;;
42760;SDS011;31672;47.638;19.026;2023-10-19T22:11:53;28.03;;;13.80;;
42760;SDS011;31672;47.638;19.026;2023-10-19T22:16:57;32.53;;;17.23;;
42760;SDS011;31672;47.638;19.026;2023-10-19T22:22:01;33.37;;;18.07;;
42760;SDS011;31672;47.638;19.026;2023-10-19T22:27:06;35.80;;;16.87;;
42760;SDS011;31672;47.638;19.026;2023-10-19T22:32:10;38.47;;;17.20;;
42760;SDS011;31672;47.638;19.026;2023-10-19T22:37:14;39.97;;;17.10;;
42760;SDS011;31672;47.638;19.026;2023-10-19T22:42:18;42.03;;;19.47;;
42760;SDS011;31672;47.638;19.026;2023-10-19T22:47:21;45.67;;;20.87;;
42760;SDS011;31672;47.638;19.026;2023-10-19T22:52:25;36.20;;;17.20;;
42760;SDS011;31672;47.638;19.026;2023-10-19T22:57:32;41.47;;;18.17;;
42760;SDS011;31672;47.638;19.026;2023-10-19T23:02:35;34.97;;;17.60;;
42760;SDS011;31672;47.638;19.026;2023-10-19T23:07:39;40.77;;;17.63;;
42760;SDS011;31672;47.638;19.026;2023-10-19T23:12:44;38.73;;;17.37;;
42760;SDS011;31672;47.638;19.026;2023-10-19T23:17:49;37.27;;;15.23;;
42760;SDS011;31672;47.638;19.026;2023-10-19T23:22:55;38.20;;;17.57;;
42760;SDS011;31672;47.638;19.026;2023-10-19T23:28:01;36.47;;;16.90;;
42760;SDS011;31672;47.638;19.026;2023-10-19T23:33:08;44.70;;;20.60;;
42760;SDS011;31672;47.638;19.026;2023-10-19T23:38:11;48.03;;;20.30;;
42760;SDS011;31672;47.638;19.026;2023-10-19T23:43:15;46.67;;;19.73;;
42760;SDS011;31672;47.638;19.026;2023-10-19T23:48:19;34.27;;;16.17;;
42760;SDS011;31672;47.638;19.026;2023-10-19T23:53:23;35.67;;;16.07;;
42760;SDS011;31672;47.638;19.026;2023-10-19T23:58:27;35.80;;;17.77;;
